createdAt,value
2017-10-10T00:02:24.404Z,55.53
2017-10-10T00:04:52.561Z,56.50
2017-10-10T00:07:20.327Z,51.65
2017-10-10T00:09:47.839Z,51.67
2017-10-10T00:12:16.291Z,47.47
2017-10-10T00:14:43.055Z,51.03
2017-10-10T00:17:09.839Z,46.28
2017-10-10T00:19:37.313Z,46.25
2017-10-10T00:22:04.263Z,45.78
2017-10-10T00:24:31.589Z,45.08
2017-10-10T00:27:02.903Z,47.28
2017-10-10T00:29:30.396Z,46.22
2017-10-10T00:31:57.203Z,41.90
2017-10-10T00:34:25.685Z,47.95
2017-10-10T00:36:53.815Z,45.55
2017-10-10T00:39:20.676Z,51.53
2017-10-10T00:41:47.490Z,49.58
2017-10-10T00:44:16.127Z,44.80
2017-10-10T00:46:44.597Z,47.60
2017-10-10T00:49:14.442Z,47.08
2017-10-10T00:51:43.343Z,49.75
2017-10-10T00:54:10.952Z,45.55
2017-10-10T00:56:38.443Z,45.03
2017-10-10T00:59:07.792Z,44.83
2017-10-10T01:01:35.253Z,41.97
2017-10-10T01:04:03.742Z,41.25
2017-10-10T01:06:30.535Z,45.72
2017-10-10T01:08:59.568Z,49.13
2017-10-10T01:11:28.324Z,45.90
2017-10-10T01:13:55.207Z,43.38
2017-10-10T01:16:24.560Z,49.00
2017-10-10T01:18:52.560Z,47.85
2017-10-10T01:21:20.408Z,43.50
2017-10-10T01:23:47.172Z,42.17
2017-10-10T01:26:14.852Z,48.53
2017-10-10T01:28:43.557Z,46.83
2017-10-10T01:31:11.127Z,44.65
2017-10-10T01:33:39.458Z,50.05
2017-10-10T01:36:07.373Z,50.40
2017-10-10T01:38:34.515Z,47.38
2017-10-10T01:41:01.987Z,42.72
2017-10-10T01:43:30.595Z,49.70
2017-10-10T01:45:58.199Z,47.72
2017-10-10T01:48:26.124Z,53.08
2017-10-10T01:50:53.639Z,49.10
2017-10-10T01:53:21.404Z,45.95
2017-10-10T01:55:49.831Z,46.50
2017-10-10T01:58:16.971Z,46.60
2017-10-10T02:00:45.067Z,47.15
2017-10-10T02:03:13.508Z,46.03
2017-10-10T02:05:41.908Z,48.65
2017-10-10T02:08:11.381Z,46.50
2017-10-10T02:10:38.128Z,50.00
2017-10-10T02:13:05.789Z,51.67
2017-10-10T02:15:32.567Z,53.25
2017-10-10T02:18:00.269Z,49.60
2017-10-10T02:20:27.096Z,47.55
2017-10-10T02:22:59.334Z,49.17
2017-10-10T02:25:27.662Z,50.50
2017-10-10T02:27:54.419Z,47.22
2017-10-10T02:30:22.903Z,48.25
2017-10-10T02:32:49.659Z,47.80
2017-10-10T02:35:16.407Z,45.88
2017-10-10T02:37:43.180Z,48.63
2017-10-10T02:40:10.985Z,44.50
2017-10-10T02:42:37.766Z,47.65
2017-10-10T02:45:05.127Z,48.97
2017-10-10T02:47:34.047Z,44.20
2017-10-10T02:50:00.891Z,48.72
2017-10-10T02:52:29.295Z,49.88
2017-10-10T02:54:56.048Z,45.55
2017-10-10T02:57:23.510Z,46.28
2017-10-10T02:59:50.227Z,47.42
2017-10-10T03:02:18.414Z,48.10
2017-10-10T03:04:45.611Z,46.17
2017-10-10T03:07:12.409Z,44.38
2017-10-10T03:09:41.283Z,41.72
2017-10-10T03:12:08.300Z,44.28
2017-10-10T03:14:37.223Z,45.17
2017-10-10T03:17:03.951Z,38.90
2017-10-10T03:19:33.252Z,45.72
2017-10-10T03:22:01.718Z,42.40
2017-10-10T03:24:32.428Z,42.88
2017-10-10T03:27:00.222Z,46.80
2017-10-10T03:29:28.416Z,36.60
2017-10-10T03:31:55.633Z,42.15
2017-10-10T03:34:22.999Z,40.65
2017-10-10T03:36:51.453Z,38.33
2017-10-10T03:39:18.267Z,38.13
2017-10-10T03:41:45.744Z,37.13
2017-10-10T03:44:13.531Z,35.70
2017-10-10T03:46:40.320Z,41.00
2017-10-10T03:49:07.127Z,38.08
2017-10-10T03:51:34.559Z,34.38
2017-10-10T03:54:06.152Z,35.60
2017-10-10T03:56:33.570Z,37.35
2017-10-10T03:59:00.335Z,34.60
2017-10-10T04:01:27.542Z,33.63
2017-10-10T04:03:56.020Z,32.90
2017-10-10T04:06:23.714Z,32.83
2017-10-10T04:08:51.278Z,29.95
2017-10-10T04:11:19.548Z,29.83
2017-10-10T04:13:47.804Z,32.13
2017-10-10T04:16:16.432Z,34.35
2017-10-10T04:18:43.269Z,28.92
2017-10-10T04:21:11.642Z,34.72
2017-10-10T04:23:39.207Z,32.65
2017-10-10T04:26:06.008Z,30.67
2017-10-10T04:28:33.750Z,32.50
2017-10-10T04:31:00.475Z,31.30
2017-10-10T04:33:27.199Z,33.63
2017-10-10T04:35:57.456Z,29.37
2017-10-10T04:38:24.916Z,30.15
2017-10-10T04:40:51.699Z,31.02
2017-10-10T04:43:18.459Z,30.75
2017-10-10T04:45:47.310Z,31.65
2017-10-10T04:48:15.573Z,30.33
2017-10-10T04:50:43.491Z,27.02
2017-10-10T04:53:10.952Z,28.75
2017-10-10T04:55:39.589Z,27.13
2017-10-10T04:58:07.307Z,29.02
2017-10-10T05:00:34.126Z,30.17
2017-10-10T05:03:01.827Z,28.70
2017-10-10T05:05:28.551Z,27.70
2017-10-10T05:07:55.317Z,26.05
2017-10-10T05:10:22.567Z,24.25
2017-10-10T05:12:49.295Z,25.20
2017-10-10T05:15:16.337Z,26.48
2017-10-10T05:17:43.871Z,26.80
2017-10-10T05:20:10.603Z,25.83
2017-10-10T05:22:37.368Z,25.65
2017-10-10T05:25:04.358Z,26.12
2017-10-10T05:27:31.941Z,30.92
2017-10-10T05:29:59.559Z,28.12
2017-10-10T05:32:26.313Z,26.92
2017-10-10T05:34:53.099Z,28.87
2017-10-10T05:37:19.879Z,26.33
2017-10-10T05:39:46.651Z,26.58
2017-10-10T05:42:13.443Z,25.67
2017-10-10T05:44:40.168Z,25.33
2017-10-10T05:47:06.922Z,28.60
2017-10-10T05:49:33.757Z,26.15
2017-10-10T05:52:00.488Z,28.20
2017-10-10T05:54:27.232Z,27.73
2017-10-10T05:56:53.965Z,26.52
2017-10-10T05:59:20.722Z,28.05
2017-10-10T06:01:47.474Z,27.62
2017-10-10T06:04:14.323Z,29.37
2017-10-10T06:06:41.052Z,29.50
2017-10-10T06:09:07.804Z,26.52
2017-10-10T06:11:34.505Z,28.42
2017-10-10T06:14:01.250Z,29.55
2017-10-10T06:16:27.995Z,30.45
2017-10-10T06:18:54.759Z,29.27
2017-10-10T06:21:21.640Z,30.55
2017-10-10T06:23:48.395Z,28.77
2017-10-10T06:26:15.107Z,29.02
2017-10-10T06:28:41.896Z,28.85
2017-10-10T06:31:08.626Z,29.87
2017-10-10T06:33:35.367Z,29.95
2017-10-10T06:36:02.140Z,32.72
2017-10-10T06:38:28.899Z,32.67
2017-10-10T06:40:55.607Z,32.50
2017-10-10T06:43:22.314Z,31.08
2017-10-10T06:45:49.092Z,33.72
2017-10-10T06:48:15.854Z,33.10
2017-10-10T06:50:42.573Z,37.25
2017-10-10T06:53:09.306Z,37.08
2017-10-10T06:55:36.076Z,36.97
2017-10-10T06:58:02.795Z,33.95
2017-10-10T07:00:29.555Z,33.80
2017-10-10T07:02:56.345Z,38.85
2017-10-10T07:05:23.068Z,42.35
2017-10-10T07:07:49.838Z,37.85
2017-10-10T07:10:16.558Z,37.55
2017-10-10T07:12:43.291Z,39.92
2017-10-10T07:15:10.035Z,39.35
2017-10-10T07:17:36.829Z,37.22
2017-10-10T07:20:03.579Z,39.92
2017-10-10T07:22:30.352Z,41.00
2017-10-10T07:24:57.074Z,40.63
2017-10-10T07:27:23.832Z,48.08
2017-10-10T07:29:50.607Z,39.30
2017-10-10T07:32:17.359Z,40.83
2017-10-10T07:34:44.087Z,44.92
2017-10-10T07:37:10.855Z,45.58
2017-10-10T07:39:37.587Z,43.92
2017-10-10T07:42:04.357Z,45.83
2017-10-10T07:44:31.161Z,42.62
2017-10-10T07:46:58.019Z,45.83
2017-10-10T07:49:24.755Z,42.78
2017-10-10T07:51:51.539Z,47.15
2017-10-10T07:54:18.280Z,46.30
2017-10-10T07:56:44.992Z,47.55
2017-10-10T07:59:11.727Z,49.85
2017-10-10T08:01:38.472Z,46.30
2017-10-10T08:04:05.199Z,47.40
2017-10-10T08:06:31.942Z,52.20
2017-10-10T08:08:58.707Z,50.95
2017-10-10T08:11:25.433Z,53.90
2017-10-10T08:13:52.191Z,51.30
2017-10-10T08:16:18.980Z,49.75
2017-10-10T08:18:45.707Z,55.83
2017-10-10T08:21:12.452Z,46.37
2017-10-10T08:23:39.199Z,53.42
2017-10-10T08:26:06.012Z,49.38
2017-10-10T08:28:32.763Z,52.03
2017-10-10T08:30:59.543Z,52.88
2017-10-10T08:33:26.258Z,52.30
2017-10-10T08:35:53.779Z,52.60
2017-10-10T08:38:20.514Z,46.83
2017-10-10T08:40:47.251Z,52.05
2017-10-10T08:43:13.988Z,51.97
2017-10-10T08:45:40.684Z,52.70
2017-10-10T08:48:07.391Z,50.50
2017-10-10T08:50:34.136Z,51.40
2017-10-10T08:53:00.902Z,48.72
2017-10-10T08:55:27.614Z,45.25
2017-10-10T08:57:54.358Z,46.63
2017-10-10T09:00:21.095Z,49.10
2017-10-10T09:02:47.807Z,46.45
2017-10-10T09:05:14.527Z,47.60
2017-10-10T09:07:41.251Z,48.10
2017-10-10T09:10:07.984Z,47.88
2017-10-10T09:12:34.739Z,43.80
2017-10-10T09:15:01.460Z,45.85
2017-10-10T09:17:28.162Z,45.70
2017-10-10T09:19:54.895Z,47.97
2017-10-10T09:22:21.630Z,48.55
2017-10-10T09:24:48.400Z,46.30
2017-10-10T09:27:15.169Z,46.05
2017-10-10T09:29:41.916Z,43.78
2017-10-10T09:32:08.629Z,41.37
2017-10-10T09:34:35.344Z,44.33
2017-10-10T09:37:02.033Z,42.97
2017-10-10T09:39:28.743Z,45.05
2017-10-10T09:41:55.456Z,44.70
2017-10-10T09:44:22.156Z,41.05
2017-10-10T09:46:48.867Z,41.60
2017-10-10T09:49:15.559Z,41.47
2017-10-10T09:51:42.275Z,39.65
2017-10-10T09:54:08.968Z,42.47
2017-10-10T09:56:35.679Z,40.72
2017-10-10T09:59:02.380Z,34.63
2017-10-10T10:01:29.091Z,38.72
2017-10-10T10:03:55.775Z,34.90
2017-10-10T10:06:22.495Z,37.97
2017-10-10T10:08:49.184Z,37.33
2017-10-10T10:11:15.887Z,33.38
2017-10-10T10:13:42.600Z,35.40
2017-10-10T10:16:09.294Z,34.88
2017-10-10T10:18:35.988Z,31.30
2017-10-10T10:21:02.727Z,31.17
2017-10-10T10:23:29.427Z,32.95
2017-10-10T10:25:56.108Z,30.92
2017-10-10T10:28:22.825Z,30.15
2017-10-10T10:30:49.516Z,29.73
2017-10-10T10:33:16.212Z,28.60
2017-10-10T10:35:42.931Z,29.42
2017-10-10T10:38:09.627Z,27.77
2017-10-10T10:40:36.308Z,31.83
2017-10-10T10:43:03.020Z,28.67
2017-10-10T10:45:29.709Z,28.38
2017-10-10T10:47:56.397Z,27.50
2017-10-10T10:50:23.121Z,28.30
2017-10-10T10:52:49.808Z,29.35
2017-10-10T10:55:16.492Z,32.55
2017-10-10T10:57:43.209Z,26.48
2017-10-10T11:00:09.899Z,28.95
2017-10-10T11:02:36.587Z,28.10
2017-10-10T11:05:03.304Z,27.15
2017-10-10T11:07:30.008Z,27.42
2017-10-10T11:09:56.700Z,28.25
2017-10-10T11:12:23.426Z,27.13
2017-10-10T11:14:50.128Z,25.30
2017-10-10T11:17:16.832Z,24.20
2017-10-10T11:19:43.551Z,24.55
2017-10-10T11:22:10.276Z,20.67
2017-10-10T11:24:36.984Z,22.92
2017-10-10T11:27:03.699Z,23.30
2017-10-10T11:29:30.391Z,21.52
2017-10-10T11:31:57.079Z,21.30
2017-10-10T11:34:23.851Z,21.83
2017-10-10T11:36:50.544Z,23.90
2017-10-10T11:39:17.243Z,23.80
2017-10-10T11:41:43.972Z,23.20
2017-10-10T11:44:10.664Z,22.45
2017-10-10T11:46:37.359Z,24.12
2017-10-10T11:49:04.075Z,23.95
2017-10-10T11:51:30.759Z,23.20
2017-10-10T11:53:57.452Z,21.87
2017-10-10T11:56:24.182Z,23.15
2017-10-10T11:58:50.872Z,22.13
2017-10-10T12:01:17.567Z,22.65
2017-10-10T12:03:44.520Z,23.35
2017-10-10T12:06:11.216Z,22.02
2017-10-10T12:08:37.899Z,21.08
2017-10-10T12:11:04.607Z,21.02
2017-10-10T12:13:31.291Z,20.48
2017-10-10T12:15:57.991Z,21.50
2017-10-10T12:18:24.704Z,19.98
2017-10-10T12:20:51.396Z,20.27
2017-10-10T12:23:18.107Z,20.35
2017-10-10T12:25:44.823Z,21.17
2017-10-10T12:28:11.520Z,20.80
2017-10-10T12:30:38.231Z,18.02
2017-10-10T12:33:04.945Z,18.65
2017-10-10T12:35:31.655Z,18.27
2017-10-10T12:37:58.367Z,17.37
2017-10-10T12:40:25.090Z,16.73
2017-10-10T12:42:51.787Z,16.85
2017-10-10T12:45:18.476Z,19.10
2017-10-10T12:47:45.204Z,18.67
2017-10-10T12:50:11.900Z,17.40
2017-10-10T12:52:38.643Z,17.50
2017-10-10T12:55:05.360Z,15.77
2017-10-10T12:57:32.059Z,16.00
2017-10-10T12:59:58.755Z,17.15
2017-10-10T13:02:25.475Z,16.75
2017-10-10T13:04:52.160Z,18.08
2017-10-10T13:07:18.851Z,17.60
2017-10-10T13:09:45.560Z,18.20
2017-10-10T13:12:12.246Z,17.60
2017-10-10T13:14:38.941Z,16.85
2017-10-10T13:17:05.672Z,18.02
2017-10-10T13:19:32.359Z,18.42
2017-10-10T13:21:59.048Z,20.08
2017-10-10T13:24:25.769Z,19.37
2017-10-10T13:26:52.467Z,20.35
2017-10-10T13:29:19.172Z,20.30
2017-10-10T13:31:45.899Z,19.75
2017-10-10T13:34:12.593Z,17.48
2017-10-10T13:36:39.276Z,19.70
2017-10-10T13:39:05.992Z,20.80
2017-10-10T13:41:32.688Z,21.65
2017-10-10T13:43:59.383Z,20.02
2017-10-10T13:46:26.108Z,20.45
2017-10-10T13:48:52.800Z,20.50
2017-10-10T13:51:19.496Z,21.87
2017-10-10T13:53:46.240Z,23.48
2017-10-10T13:56:12.931Z,25.02
2017-10-10T13:58:39.640Z,24.25
2017-10-10T14:01:06.356Z,24.98
2017-10-10T14:03:33.044Z,23.85
2017-10-10T14:05:59.732Z,22.50
2017-10-10T14:08:26.440Z,24.60
2017-10-10T14:10:53.123Z,25.65
2017-10-10T14:13:19.821Z,25.35
2017-10-10T14:15:46.539Z,24.37
2017-10-10T14:18:13.245Z,22.73
2017-10-10T14:20:39.938Z,23.25
2017-10-10T14:23:06.648Z,22.85
2017-10-10T14:25:33.334Z,20.52
2017-10-10T14:28:00.020Z,20.05
2017-10-10T14:30:26.744Z,20.62
2017-10-10T14:32:53.688Z,18.27
2017-10-10T14:35:20.384Z,19.87
2017-10-10T14:37:47.096Z,21.08
2017-10-10T14:40:13.784Z,20.27
2017-10-10T14:42:40.471Z,21.77
2017-10-10T14:45:07.192Z,21.92
2017-10-10T14:47:34.241Z,21.00
2017-10-10T14:50:00.928Z,20.23
2017-10-10T14:52:27.651Z,23.62
2017-10-10T14:54:54.331Z,22.17
2017-10-10T14:57:21.028Z,22.80
2017-10-10T14:59:47.734Z,24.70
2017-10-10T15:02:14.440Z,23.42
2017-10-10T15:04:41.142Z,22.23
2017-10-10T15:07:07.865Z,24.33
2017-10-10T15:09:34.552Z,25.75
2017-10-10T15:12:01.240Z,25.77
2017-10-10T15:14:27.955Z,26.42
2017-10-10T15:16:54.644Z,29.08
2017-10-10T15:19:21.343Z,27.35
2017-10-10T15:21:48.059Z,29.23
2017-10-10T15:24:14.753Z,29.37
2017-10-10T15:26:41.435Z,28.08
2017-10-10T15:29:08.155Z,29.55
2017-10-10T15:31:34.840Z,32.80
2017-10-10T15:34:01.523Z,29.25
2017-10-10T15:36:28.245Z,30.37
2017-10-10T15:38:54.939Z,31.00
2017-10-10T15:41:21.634Z,28.40
2017-10-10T15:43:48.359Z,35.60
2017-10-10T15:46:15.050Z,31.02
2017-10-10T15:48:42.095Z,31.17
2017-10-10T15:51:08.814Z,34.33
2017-10-10T15:53:35.507Z,35.17
2017-10-10T15:56:02.196Z,32.35
2017-10-10T15:58:28.916Z,35.83
2017-10-10T16:00:55.612Z,30.17
2017-10-10T16:03:22.302Z,30.08
2017-10-10T16:05:49.024Z,27.48
2017-10-10T16:08:15.718Z,29.77
2017-10-10T16:10:42.411Z,29.10
2017-10-10T16:13:09.142Z,27.37
2017-10-10T16:15:35.836Z,31.62
2017-10-10T16:18:02.533Z,31.27
2017-10-10T16:20:29.258Z,28.95
2017-10-10T16:22:55.967Z,29.45
2017-10-10T16:25:22.661Z,31.77
2017-10-10T16:27:49.388Z,29.70
2017-10-10T16:30:16.081Z,30.05
2017-10-10T16:32:43.429Z,30.12
2017-10-10T16:35:10.140Z,29.30
2017-10-10T16:37:36.848Z,31.52
2017-10-10T16:40:03.547Z,34.13
2017-10-10T16:42:30.270Z,32.60
2017-10-10T16:44:56.964Z,32.25
2017-10-10T16:47:23.662Z,35.13
2017-10-10T16:49:50.403Z,32.63
2017-10-10T16:52:19.188Z,29.98
2017-10-10T16:54:45.910Z,30.20
2017-10-10T16:57:12.653Z,32.33
2017-10-10T16:59:39.374Z,36.78
2017-10-10T17:02:06.162Z,31.65
2017-10-10T17:04:33.854Z,31.77
2017-10-10T17:07:00.915Z,34.75
2017-10-10T17:09:27.623Z,34.42
2017-10-10T17:11:54.358Z,36.47
2017-10-10T17:14:21.402Z,36.72
2017-10-10T17:16:49.031Z,39.55
2017-10-10T17:19:15.751Z,36.63
2017-10-10T17:21:43.291Z,32.08
2017-10-10T17:24:09.984Z,40.78
2017-10-10T17:26:38.832Z,38.88
2017-10-10T17:29:07.202Z,38.17
2017-10-10T17:31:35.071Z,33.80
2017-10-10T17:34:02.794Z,31.25
2017-10-10T17:36:29.512Z,30.88
2017-10-10T17:39:54.051Z,26.77
2017-10-10T17:42:23.200Z,26.73
2017-10-10T17:44:50.572Z,28.77
2017-10-10T17:47:17.785Z,25.30
2017-10-10T17:49:44.771Z,25.42
2017-10-10T17:52:11.464Z,24.25
2017-10-10T17:54:39.995Z,24.60
2017-10-10T17:57:06.679Z,27.65
2017-10-10T17:59:33.367Z,27.73
2017-10-10T18:02:00.096Z,23.50
2017-10-10T18:04:26.838Z,27.23
2017-10-10T18:06:54.279Z,24.95
2017-10-10T18:09:26.816Z,26.83
2017-10-10T18:11:53.540Z,27.92
2017-10-10T18:14:21.510Z,25.37
2017-10-10T18:16:48.294Z,28.38
2017-10-10T18:19:15.036Z,26.12
2017-10-10T18:21:42.404Z,25.98
2017-10-10T18:24:09.275Z,26.05
2017-10-10T18:26:36.888Z,27.77
2017-10-10T18:29:07.402Z,25.88
2017-10-10T18:31:34.144Z,28.25
2017-10-10T18:34:01.185Z,29.15
2017-10-10T18:36:29.667Z,27.95
2017-10-10T18:38:56.981Z,25.65
2017-10-10T18:41:24.003Z,28.05
2017-10-10T18:43:52.018Z,26.30
2017-10-10T18:46:19.098Z,27.35
2017-10-10T18:48:46.266Z,27.35
2017-10-10T18:51:14.145Z,25.42
2017-10-10T18:53:40.908Z,25.77
2017-10-10T18:56:09.667Z,26.27
2017-10-10T18:58:37.612Z,25.25
2017-10-10T19:01:04.799Z,26.05
2017-10-10T19:03:31.661Z,23.98
2017-10-10T19:05:59.327Z,24.45
2017-10-10T19:08:29.541Z,23.27
2017-10-10T19:10:56.289Z,24.87
2017-10-10T19:13:24.196Z,23.95
2017-10-10T19:15:51.189Z,22.48
2017-10-10T19:18:17.996Z,23.35
2017-10-10T19:20:47.293Z,24.02
2017-10-10T19:23:17.736Z,23.33
2017-10-10T19:25:47.329Z,25.60
2017-10-10T19:30:50.422Z,24.15
2017-10-10T19:33:17.448Z,23.25
2017-10-10T19:35:45.102Z,23.62
2017-10-10T19:38:12.743Z,22.80
2017-10-10T19:40:40.508Z,22.02
2017-10-10T19:43:11.092Z,23.83
2017-10-10T19:45:38.080Z,22.42
2017-10-10T19:48:07.763Z,21.98
2017-10-10T19:50:35.638Z,23.35
2017-10-10T19:55:38.953Z,22.65
2017-10-10T19:58:07.560Z,21.45
2017-10-10T20:00:36.764Z,21.58
2017-10-10T20:03:04.520Z,22.02
2017-10-10T20:05:34.954Z,22.20
2017-10-10T20:08:02.142Z,19.95
2017-10-10T20:10:29.335Z,20.60
2017-10-10T20:13:06.747Z,20.40
2017-10-10T20:15:36.248Z,19.90
2017-10-10T20:18:05.639Z,22.17
2017-10-10T20:20:34.724Z,19.40
2017-10-10T20:23:02.714Z,20.55
2017-10-10T20:25:31.228Z,20.55
2017-10-10T20:27:58.885Z,18.98
2017-10-10T20:30:25.688Z,19.75
2017-10-10T20:32:53.371Z,20.25
2017-10-10T20:35:20.067Z,19.87
2017-10-10T20:37:48.084Z,17.60
2017-10-10T20:40:17.304Z,19.52
2017-10-10T20:42:44.413Z,17.33
2017-10-10T20:45:16.721Z,17.75
2017-10-10T20:47:44.843Z,17.17
2017-10-10T20:50:12.367Z,16.92
2017-10-10T20:52:39.129Z,18.33
2017-10-10T20:55:07.211Z,17.83
2017-10-10T20:57:34.205Z,18.12
2017-10-10T21:00:01.861Z,17.27
2017-10-10T21:02:28.595Z,17.52
2017-10-10T21:04:57.020Z,16.08
2017-10-10T21:07:23.807Z,15.75
2017-10-10T21:09:51.461Z,16.42
2017-10-10T21:12:19.120Z,16.40
2017-10-10T21:14:46.654Z,16.27
2017-10-10T21:17:13.452Z,16.23
2017-10-10T21:19:41.072Z,15.38
2017-10-10T21:22:07.771Z,16.17
2017-10-10T21:24:35.321Z,15.55
2017-10-10T21:27:03.055Z,16.25
2017-10-10T21:29:29.783Z,14.52
2017-10-10T21:31:57.483Z,15.77
2017-10-10T21:34:24.859Z,15.73
2017-10-10T21:36:55.284Z,18.25
2017-10-10T21:39:24.094Z,15.27
2017-10-10T21:41:51.611Z,16.75
2017-10-10T21:44:18.856Z,16.37
2017-10-10T21:46:48.041Z,16.33
2017-10-10T21:49:15.475Z,17.20
2017-10-10T21:51:43.327Z,16.30
2017-10-10T21:54:10.823Z,16.30
2017-10-10T21:56:38.280Z,15.85
2017-10-10T21:59:04.992Z,16.73
2017-10-10T22:01:31.728Z,16.45
2017-10-10T22:03:58.432Z,16.95
2017-10-10T22:06:27.010Z,16.58
2017-10-10T22:08:53.803Z,16.00
2017-10-10T22:11:22.056Z,16.02
2017-10-10T22:13:48.755Z,15.80
2017-10-10T22:16:16.473Z,15.23
2017-10-10T22:18:43.168Z,16.80
2017-10-10T22:21:11.920Z,17.15
2017-10-10T22:23:40.264Z,14.98
2017-10-10T22:26:08.258Z,15.90
2017-10-10T22:28:37.067Z,15.45
2017-10-10T22:31:03.815Z,15.95
2017-10-10T22:33:31.700Z,16.85
2017-10-10T22:35:58.440Z,16.58
2017-10-10T22:38:25.187Z,17.55
2017-10-10T22:40:55.550Z,15.95
2017-10-10T22:43:24.332Z,14.63
2017-10-10T22:45:53.479Z,14.65
2017-10-10T22:48:20.939Z,15.52
2017-10-10T22:50:48.729Z,15.70
2017-10-10T22:53:15.697Z,15.35
2017-10-10T22:55:45.064Z,15.82
2017-10-10T22:58:11.822Z,15.25
2017-10-10T23:00:42.196Z,14.93
2017-10-10T23:03:10.704Z,16.23
2017-10-10T23:05:38.882Z,14.10
2017-10-10T23:08:05.611Z,15.23
2017-10-10T23:10:32.297Z,15.15
2017-10-10T23:12:59.311Z,13.85
2017-10-10T23:15:26.943Z,14.15
2017-10-10T23:17:53.703Z,15.40
2017-10-10T23:20:20.785Z,14.32
2017-10-10T23:22:48.584Z,14.10
2017-10-10T23:25:15.301Z,15.73
2017-10-10T23:27:42.358Z,15.15
2017-10-10T23:30:11.177Z,14.45
2017-10-10T23:32:37.904Z,16.55
2017-10-10T23:35:05.204Z,16.37
2017-10-10T23:37:31.947Z,15.55
2017-10-10T23:40:01.192Z,15.55
2017-10-10T23:42:27.911Z,15.10
2017-10-10T23:44:54.727Z,15.05
2017-10-10T23:47:21.459Z,15.50
2017-10-10T23:49:48.173Z,14.13
2017-10-10T23:52:14.891Z,16.20
2017-10-10T23:54:41.589Z,14.70
2017-10-10T23:59:40.275Z,14.55
